Great Neck, NY

1:17 PM EDT on April 27, 2015 (GMT -0400)
Oakland Gardens | | Change Station
CLOSE
Current Station
Personal Weather Station
Location: New York, NY
Elevation: 95 ft
Nearby Weather Stations

Elev 95 ft 40.75 °N, 73.75 °W | Updated 1 minute ago

Mostly Cloudy
Mostly Cloudy
59.5 °F
Feels Like 59.5 °F
N
2.0
Wind Variable Wind from SSE
Gusts 4.0 mph

Today
High -- | Low -- °F
--% Chance of Precip.
Yesterday
High -- | Low -- °F
Precip. -- in
5:59 AM 7:46 PM
Waxing Gibbous, 66% visible
Pressure 29.66 in
Visibility 10.0 miles
Clouds Scattered Clouds 6000 ft
Mostly Cloudy 8500 ft
Dew Point 39 °F
Humidity 46%
Rainfall 0.00 in
Snow Depth Not available.
UV 6 out of 12
Pollen 10.20 out of 12
Air Quality Not available.
Flu Activity Widespread
METAR KLGA 271651Z 33011G20KT 10SM SCT060 BKN085 14/00 A2966 RMK AO2 SLP043 T01390000

More Conditions Fewer Conditions

Pressure 29.66 in
Visibility 10.0 miles
Clouds Scattered Clouds 6000 ft
Mostly Cloudy 8500 ft
Dew Point 39 °F
Humidity 46%
Rainfall 0.00 in
Snow Depth Not available.
UV 6 out of 12
Pollen 10.20 out of 12
Air Quality Not available.
Flu Activity Widespread
METAR KLGA 271651Z 33011G20KT 10SM SCT060 BKN085 14/00 A2966 RMK AO2 SLP043 T01390000

More Conditions Fewer Conditions

10-Day Weather Forecast

Almanac

Astronomy

Apr. 27, 2015 Rise Set
Actual Time
Civil Twilight
Nautical Twilight
Astronomical Twilight
Moon
Length of Visible Light
Length of Day
Tomorrow will be .
, % of the Moon is Illuminated

Today's Extremes

State Highs State Lows

Community

WunderPhotos

Upload Photos

1,817,346 photos uploaded!

WunderBlogs® & News

Nearby

Air Quality

  Air Quality AQ Index Pollutant
Not available.

Snow Depth

Station Depth Elevation

Earthquake Activity

City Distance Mag. Time & Date
Minimum magnitude displayed is 2.5.

Coastal Water Temperatures

Place Temperature

Stations

Nearby Weather Stations

Station Location Temp. Windchill Dew Point Humidity Wind Precip. Elev Updated Type